Time;durP1;ratioP1;P1;durP2;ratioP2;P2;SDS_P1;SDS_P2;PMS_P1;PMS_P2;Temp;Humidity;BMP_temperature;BMP_pressure;BME280_temperature;BME280_humidity;BME280_pressure;Samples;Min_cycle;Max_cycle;Signal;HPM_P1;HPM_P2
2022/09/17 00:00:57;;;;;;;;;;;;;;;24.59;59.61;99794.41;7408478;19;1200;-67
2022/09/17 00:03:27;;;;;;;;;;;;;;;24.58;59.59;99787.31;7405736;19;1717;-67
2022/09/17 00:06:00;;;;;;;;;;;;;;;24.60;59.66;99797.94;7405848;19;1843;-67
2022/09/17 00:08:31;;;;;;;;;;;;;;;24.61;59.56;99805.00;7408127;19;1631;-67
2022/09/17 00:11:00;;;;;;;;;;;;;;;24.59;59.64;99793.53;7409553;19;1631;-57
2022/09/17 00:13:28;;;;;;;;;;;;;;;24.56;59.53;99807.47;7406632;19;1605;-67
2022/09/17 00:15:56;;;;;;;;;;;;;;;24.57;59.46;99815.41;7406199;19;1634;-66
2022/09/17 00:18:24;;;;;;;;;;;;;;;24.55;59.67;99812.06;7408440;19;1563;-62
2022/09/17 00:20:53;;;;;;;;;;;;;;;24.55;59.61;99806.66;7408107;19;984;-57
2022/09/17 00:23:21;;;;;;;;;;;;;;;24.55;59.73;99798.53;7407968;19;1706;-57
2022/09/17 00:25:52;;;;;;;;;;;;;;;24.54;59.41;99794.16;7403271;19;1849;-57
2022/09/17 00:28:20;;;;;;;;;;;;;;;24.56;59.81;99800.19;7408395;19;1630;-57
2022/09/17 00:30:48;;;;;;;;;;;;;;;24.55;59.58;99806.66;7409033;19;959;-57
2022/09/17 00:33:18;;;;;;;;;;;;;;;24.57;59.69;99812.69;7404914;19;1730;-67
2022/09/17 00:35:47;;;;;;;;;;;;;;;24.56;59.70;99796.66;7406110;19;1570;-68
2022/09/17 00:38:15;;;;;;;;;;;;;;;24.52;59.71;99792.69;7406545;19;1540;-67
2022/09/17 00:40:43;;;;;;;;;;;;;;;24.55;59.58;99779.63;7407185;19;885;-67
2022/09/17 00:43:14;;;;;;;;;;;;;;;24.53;59.61;99784.38;7406651;19;1776;-67
2022/09/17 00:45:43;;;;;;;;;;;;;;;24.56;59.83;99786.69;7407146;19;1857;-67
2022/09/17 00:48:12;;;;;;;;;;;;;;;24.54;59.71;99777.09;7407765;19;1551;-58
2022/09/17 00:50:43;;;;;;;;;;;;;;;24.57;59.81;99792.91;7405694;19;1630;-67
2022/09/17 00:53:14;;;;;;;;;;;;;;;24.57;59.62;99792.91;7404257;19;1639;-67
2022/09/17 00:55:44;;;;;;;;;;;;;;;24.54;59.54;99796.84;7406053;19;1543;-67
2022/09/17 00:58:17;;;;;;;;;;;;;;;24.54;59.71;99783.34;7406010;19;1098;-67
2022/09/17 01:00:46;;;;;;;;;;;;;;;24.54;59.69;99782.50;7406281;19;1009;-57
2022/09/17 01:03:14;;;;;;;;;;;;;;;24.55;59.82;99779.63;7403718;19;1710;-56
2022/09/17 01:05:46;;;;;;;;;;;;;;;24.52;59.55;99780.00;7404521;19;1848;-56
2022/09/17 01:08:21;;;;;;;;;;;;;;;24.55;59.54;99785.03;7403896;19;1594;-56
2022/09/17 01:10:59;;;;;;;;;;;;;;;24.53;59.81;99776.28;7407306;19;1567;-67
2022/09/17 01:13:35;;;;;;;;;;;;;;;24.51;59.53;99789.16;7405723;19;1612;-57
2022/09/17 01:16:08;;;;;;;;;;;;;;;24.54;59.88;99788.75;7406837;19;1509;-57
2022/09/17 01:18:44;;;;;;;;;;;;;;;24.52;59.80;99780.00;7407509;19;1564;-58
2022/09/17 01:21:27;;;;;;;;;;;;;;;24.51;59.79;99778.34;7404932;19;1614;-56
2022/09/17 01:24:17;;;;;;;;;;;;;;;24.50;59.79;99781.19;7407558;19;1020;-57
2022/09/17 01:27:04;;;;;;;;;;;;;;;24.51;59.74;99785.59;7400738;19;1840;-62
2022/09/17 01:29:45;;;;;;;;;;;;;;;24.53;59.63;99783.53;7404626;19;1633;-67
2022/09/17 01:32:20;;;;;;;;;;;;;;;24.51;59.83;99780.19;7404708;19;1646;-57
2022/09/17 01:34:55;;;;;;;;;;;;;;;24.53;59.71;99780.81;7404273;19;1615;-67
2022/09/17 01:37:30;;;;;;;;;;;;;;;24.50;59.68;99770.38;7406998;19;1007;-67
2022/09/17 01:40:09;;;;;;;;;;;;;;;24.51;59.53;99767.53;7403771;19;1632;-67
2022/09/17 01:42:39;;;;;;;;;;;;;;;24.51;59.77;99764.81;7402932;19;1725;-57
2022/09/17 01:45:11;;;;;;;;;;;;;;;24.50;59.64;99744.22;7404536;19;1840;-67
2022/09/17 01:47:45;;;;;;;;;;;;;;;24.53;59.88;99754.66;7405841;19;1722;-67
2022/09/17 01:50:16;;;;;;;;;;;;;;;24.48;59.76;99754.34;7402493;19;1642;-67
2022/09/17 01:52:45;;;;;;;;;;;;;;;24.51;59.67;99755.84;7405439;19;1621;-57
2022/09/17 01:55:15;;;;;;;;;;;;;;;24.50;59.85;99744.22;7405963;19;1606;-57
2022/09/17 01:57:47;;;;;;;;;;;;;;;24.52;59.92;99752.13;7405321;19;1543;-57
2022/09/17 02:00:16;;;;;;;;;;;;;;;24.50;59.59;99725.31;7401122;19;1067;-57
2022/09/17 02:02:50;;;;;;;;;;;;;;;24.50;59.85;99730.72;7392359;19;1528;-57
2022/09/17 02:05:19;;;;;;;;;;;;;;;24.46;59.93;99721.28;7403093;19;1846;-57
2022/09/17 02:07:52;;;;;;;;;;;;;;;24.48;59.88;99719.22;7405634;19;969;-57
2022/09/17 02:10:22;;;;;;;;;;;;;;;24.49;59.86;99720.91;7405670;19;988;-57
2022/09/17 02:12:54;;;;;;;;;;;;;;;24.54;59.88;99734.69;7405468;19;1686;-57
2022/09/17 02:15:24;;;;;;;;;;;;;;;24.49;59.87;99725.47;7402874;19;1650;-57
2022/09/17 02:17:56;;;;;;;;;;;;;;;24.51;59.66;99736.94;7404866;19;1538;-57
2022/09/17 02:20:26;;;;;;;;;;;;;;;24.46;59.90;99715.88;7404413;19;968;-57
2022/09/17 02:22:57;;;;;;;;;;;;;;;24.47;59.75;99717.56;7405236;19;953;-57
2022/09/17 02:25:28;;;;;;;;;;;;;;;24.49;59.69;99718.22;7404709;19;1861;-57
2022/09/17 02:28:00;;;;;;;;;;;;;;;24.46;59.83;99707.78;7404003;19;1700;-57
2022/09/17 02:30:28;;;;;;;;;;;;;;;24.50;59.85;99710.94;7404615;19;1702;-57
2022/09/17 02:32:59;;;;;;;;;;;;;;;24.48;59.89;99718.41;7404425;19;1563;-57
2022/09/17 02:35:27;;;;;;;;;;;;;;;24.45;60.07;99703.41;7402648;19;1638;-57
2022/09/17 02:37:55;;;;;;;;;;;;;;;24.47;59.86;99709.47;7404192;19;1570;-56
2022/09/17 02:40:26;;;;;;;;;;;;;;;24.44;60.01;99696.34;7405000;19;937;-57
2022/09/17 02:43:01;;;;;;;;;;;;;;;24.45;59.92;99691.75;7402256;19;1792;-57
2022/09/17 02:45:34;;;;;;;;;;;;;;;24.51;59.67;99709.91;7407027;19;1861;-57
2022/09/17 02:48:15;;;;;;;;;;;;;;;24.48;59.95;99713.00;7411781;19;1714;-57
2022/09/17 02:51:00;;;;;;;;;;;;;;;24.47;60.01;99711.31;7411928;19;1765;-57
2022/09/17 02:53:37;;;;;;;;;;;;;;;24.47;59.83;99717.56;7411088;19;1686;-57
2022/09/17 02:56:12;;;;;;;;;;;;;;;24.47;59.99;99704.06;7408149;19;1678;-57
2022/09/17 02:58:43;;;;;;;;;;;;;;;24.46;59.89;99698.84;7408891;19;1615;-57
2022/09/17 03:01:16;;;;;;;;;;;;;;;24.44;59.85;99690.94;7410844;19;1386;-57
2022/09/17 03:03:49;;;;;;;;;;;;;;;24.44;59.93;99679.28;7410488;19;1678;-57
2022/09/17 03:06:17;;;;;;;;;;;;;;;24.43;59.98;99675.72;7409070;19;1865;-57
2022/09/17 03:08:46;;;;;;;;;;;;;;;24.45;59.98;99678.25;7410320;19;1662;-57
2022/09/17 03:11:14;;;;;;;;;;;;;;;24.46;59.83;99671.81;7409143;19;1567;-57
2022/09/17 03:13:43;;;;;;;;;;;;;;;24.45;59.87;99676.38;7410979;19;1535;-57
2022/09/17 03:16:11;;;;;;;;;;;;;;;24.45;59.94;99665.56;7408659;19;1615;-57
2022/09/17 03:18:39;;;;;;;;;;;;;;;24.48;60.07;99669.75;7410785;19;1591;-57
2022/09/17 03:21:11;;;;;;;;;;;;;;;24.41;59.86;99656.19;7411612;19;917;-57
2022/09/17 03:23:39;;;;;;;;;;;;;;;24.42;60.11;99669.50;7409785;19;973;-57
2022/09/17 03:26:08;;;;;;;;;;;;;;;24.42;60.05;99676.78;7403381;19;1857;-67
2022/09/17 03:28:36;;;;;;;;;;;;;;;24.38;60.13;99659.28;7410417;19;1552;-57
2022/09/17 03:31:04;;;;;;;;;;;;;;;24.46;60.17;99656.44;7409140;19;937;-57
2022/09/17 03:33:32;;;;;;;;;;;;;;;24.42;59.79;99656.00;7406902;19;1683;-57
2022/09/17 03:36:01;;;;;;;;;;;;;;;24.42;60.07;99634.38;7409571;19;1551;-57
2022/09/17 03:38:33;;;;;;;;;;;;;;;24.38;60.00;99627.69;7409482;19;1603;-57
2022/09/17 03:41:01;;;;;;;;;;;;;;;24.39;60.02;99623.13;7410538;19;996;-57
2022/09/17 03:43:30;;;;;;;;;;;;;;;24.41;59.99;99610.25;7409845;19;1631;-57
2022/09/17 03:45:59;;;;;;;;;;;;;;;24.40;60.12;99605.88;7406564;19;1838;-57
2022/09/17 03:48:28;;;;;;;;;;;;;;;24.46;59.87;99613.19;7410461;19;1773;-57
2022/09/17 03:50:56;;;;;;;;;;;;;;;24.40;60.16;99614.00;7410755;19;1016;-57
2022/09/17 03:53:25;;;;;;;;;;;;;;;24.38;60.04;99614.19;7409383;19;1753;-57
2022/09/17 03:55:55;;;;;;;;;;;;;;;24.43;60.09;99610.88;7407683;19;1711;-57
2022/09/17 03:58:24;;;;;;;;;;;;;;;24.45;59.89;99616.91;7407539;19;1615;-57
2022/09/17 04:00:53;;;;;;;;;;;;;;;24.37;60.21;99608.97;7408938;19;1603;-57
2022/09/17 04:03:22;;;;;;;;;;;;;;;24.42;60.23;99601.94;7405643;19;1422;-57
2022/09/17 04:05:50;;;;;;;;;;;;;;;24.38;60.20;99589.88;7408652;19;1853;-57
2022/09/17 04:08:18;;;;;;;;;;;;;;;24.39;59.95;99585.28;7406015;19;1733;-57
2022/09/17 04:10:47;;;;;;;;;;;;;;;24.39;59.99;99575.34;7408887;19;1567;-57
2022/09/17 04:13:18;;;;;;;;;;;;;;;24.40;60.04;99577.00;7408602;19;1551;-57
2022/09/17 04:15:46;;;;;;;;;;;;;;;24.42;60.01;99566.00;7409351;19;973;-58
2022/09/17 04:18:15;;;;;;;;;;;;;;;24.41;60.13;99573.28;7407638;19;1709;-57
2022/09/17 04:20:43;;;;;;;;;;;;;;;24.40;60.18;99586.97;7404388;19;1689;-57
2022/09/17 04:23:13;;;;;;;;;;;;;;;24.43;60.18;99591.97;7409026;19;1023;-57
2022/09/17 04:25:41;;;;;;;;;;;;;;;24.40;59.83;99589.69;7406710;19;1842;-57
2022/09/17 04:28:09;;;;;;;;;;;;;;;24.38;59.94;99600.69;7408115;19;1645;-57
2022/09/17 04:30:41;;;;;;;;;;;;;;;24.39;60.05;99604.22;7408356;19;890;-67
2022/09/17 04:33:10;;;;;;;;;;;;;;;24.45;59.92;99610.69;7407295;19;1777;-67
2022/09/17 04:35:38;;;;;;;;;;;;;;;24.39;59.89;99578.03;7407078;19;1678;-67
2022/09/17 04:38:07;;;;;;;;;;;;;;;24.39;60.14;99588.00;7405905;19;1530;-67
2022/09/17 04:40:35;;;;;;;;;;;;;;;24.38;60.01;99589.88;7407796;19;1083;-67
2022/09/17 04:43:03;;;;;;;;;;;;;;;24.42;59.96;99585.72;7407436;19;1375;-57
2022/09/17 04:45:32;;;;;;;;;;;;;;;24.46;60.09;99602.38;7406230;19;1892;-67
2022/09/17 04:48:03;;;;;;;;;;;;;;;24.42;59.72;99593.00;7405633;19;1853;-68
2022/09/17 04:50:31;;;;;;;;;;;;;;;24.38;59.87;99573.66;7406623;19;1314;-67
2022/09/17 04:53:00;;;;;;;;;;;;;;;24.42;59.90;99574.09;7407987;19;1101;-68
2022/09/17 04:55:28;;;;;;;;;;;;;;;24.41;60.04;99564.31;7403988;19;1737;-67
2022/09/17 04:57:56;;;;;;;;;;;;;;;24.39;59.87;99569.94;7406199;19;936;-67
2022/09/17 05:00:25;;;;;;;;;;;;;;;24.48;60.12;99583.28;7406781;19;1701;-67
2022/09/17 05:02:55;;;;;;;;;;;;;;;24.43;59.89;99581.16;7405293;19;1684;-67
2022/09/17 05:05:25;;;;;;;;;;;;;;;24.43;60.12;99575.75;7405898;19;1677;-68
2022/09/17 05:07:54;;;;;;;;;;;;;;;24.40;59.94;99581.56;7402599;19;1842;-67
2022/09/17 05:10:24;;;;;;;;;;;;;;;24.42;59.72;99579.50;7408142;19;1016;-67
2022/09/17 05:12:52;;;;;;;;;;;;;;;24.42;59.90;99569.53;7406456;19;1782;-67
2022/09/17 05:15:21;;;;;;;;;;;;;;;24.43;59.86;99567.66;7404138;19;1763;-68
2022/09/17 05:17:49;;;;;;;;;;;;;;;24.41;59.81;99573.28;7405931;19;954;-68
2022/09/17 05:20:19;;;;;;;;;;;;;;;24.45;60.00;99576.38;7405496;19;1691;-68
2022/09/17 05:22:50;;;;;;;;;;;;;;;24.42;59.67;99569.53;7406538;19;1735;-67
2022/09/17 05:25:19;;;;;;;;;;;;;;;24.47;59.76;99579.75;7405598;19;1712;-67
2022/09/17 05:27:48;;;;;;;;;;;;;;;24.43;60.03;99575.75;7405087;19;1861;-67
2022/09/17 05:30:16;;;;;;;;;;;;;;;24.42;59.75;99579.50;7405554;19;1075;-67
2022/09/17 05:32:44;;;;;;;;;;;;;;;24.46;59.97;99569.13;7405955;19;1346;-67
2022/09/17 05:35:12;;;;;;;;;;;;;;;24.43;59.96;99573.03;7404528;19;1426;-57
2022/09/17 05:37:40;;;;;;;;;;;;;;;24.39;59.99;99569.06;7403849;19;1433;-57
2022/09/17 05:40:12;;;;;;;;;;;;;;;24.44;59.95;99582.84;7405612;19;1688;-57
2022/09/17 05:42:40;;;;;;;;;;;;;;;24.42;59.83;99574.09;7404665;19;1714;-57
2022/09/17 05:45:09;;;;;;;;;;;;;;;24.42;60.12;99574.94;7405095;19;1394;-57
2022/09/17 05:47:37;;;;;;;;;;;;;;;24.43;59.76;99570.34;7404529;19;1857;-57
2022/09/17 05:50:06;;;;;;;;;;;;;;;24.41;59.86;99575.97;7404935;19;1469;-57
2022/09/17 05:52:34;;;;;;;;;;;;;;;24.48;59.87;99567.88;7404477;19;1146;-57
2022/09/17 05:55:02;;;;;;;;;;;;;;;24.52;59.77;99576.47;7406546;19;995;-57
2022/09/17 05:57:33;;;;;;;;;;;;;;;24.52;60.05;99580.00;7405310;19;1785;-57
2022/09/17 06:00:01;;;;;;;;;;;;;;;24.51;59.69;99577.47;7405764;19;1672;-57
2022/09/17 06:02:29;;;;;;;;;;;;;;;24.48;59.91;99562.47;7400566;19;1705;-57
2022/09/17 06:05:00;;;;;;;;;;;;;;;24.47;59.70;99554.56;7402554;19;1278;-67
2022/09/17 06:07:28;;;;;;;;;;;;;;;24.49;59.89;99555.19;7405398;19;1853;-57
2022/09/17 06:09:57;;;;;;;;;;;;;;;24.47;59.95;99558.13;7404520;19;1714;-57
2022/09/17 06:12:25;;;;;;;;;;;;;;;24.46;59.96;99569.13;7403075;19;1657;-57
2022/09/17 06:14:56;;;;;;;;;;;;;;;24.47;60.03;99566.22;7405335;19;1611;-57
2022/09/17 06:17:24;;;;;;;;;;;;;;;24.44;60.04;99561.22;7402829;19;1702;-57
2022/09/17 06:19:53;;;;;;;;;;;;;;;24.44;59.98;99566.63;7405492;19;1657;-57
2022/09/17 06:22:22;;;;;;;;;;;;;;;24.43;59.92;99548.72;7410307;19;1367;-57
2022/09/17 06:24:50;;;;;;;;;;;;;;;24.48;60.05;99551.69;7412482;19;1195;-57
2022/09/17 06:27:18;;;;;;;;;;;;;;;24.42;59.77;99557.88;7408945;19;1851;-57
2022/09/17 06:29:46;;;;;;;;;;;;;;;24.47;59.97;99557.28;7411525;19;1343;-57
2022/09/17 06:32:17;;;;;;;;;;;;;;;24.41;59.79;99530.03;7411071;19;1564;-57
2022/09/17 06:34:45;;;;;;;;;;;;;;;24.44;60.09;99553.13;7412589;19;1536;-57
2022/09/17 06:37:14;;;;;;;;;;;;;;;24.48;60.00;99543.56;7412337;19;1091;-67
2022/09/17 06:39:42;;;;;;;;;;;;;;;24.45;59.96;99556.63;7409521;19;1760;-67
2022/09/17 06:42:11;;;;;;;;;;;;;;;24.47;60.06;99558.13;7412100;19;1517;-67
2022/09/17 06:44:39;;;;;;;;;;;;;;;24.42;60.07;99547.91;7411764;19;1555;-57
2022/09/17 06:47:08;;;;;;;;;;;;;;;24.46;59.80;99558.31;7409651;19;1850;-57
2022/09/17 06:49:38;;;;;;;;;;;;;;;24.48;60.02;99556.25;7410508;19;1576;-57
2022/09/17 06:52:07;;;;;;;;;;;;;;;24.50;59.90;99571.25;7410222;19;1636;-57
2022/09/17 06:54:35;;;;;;;;;;;;;;;24.45;60.02;99565.56;7409782;19;1713;-57
2022/09/17 06:57:03;;;;;;;;;;;;;;;24.46;60.07;99574.53;7410556;19;1748;-57
2022/09/17 06:59:31;;;;;;;;;;;;;;;24.47;60.02;99570.78;7410928;19;1630;-57
2022/09/17 07:01:59;;;;;;;;;;;;;;;24.43;60.10;99573.03;7408657;19;1579;-57
2022/09/17 07:04:28;;;;;;;;;;;;;;;24.43;60.00;99559.53;7411427;19;1390;-57
2022/09/17 07:06:59;;;;;;;;;;;;;;;24.44;60.23;99566.63;7410836;19;1853;-57
2022/09/17 07:09:27;;;;;;;;;;;;;;;24.46;60.20;99563.72;7409699;19;1600;-57
2022/09/17 07:11:56;;;;;;;;;;;;;;;24.42;59.98;99576.78;7409520;19;1721;-67
2022/09/17 07:14:24;;;;;;;;;;;;;;;24.45;59.97;99578.25;7409581;19;1555;-57
2022/09/17 07:16:53;;;;;;;;;;;;;;;24.41;60.01;99564.31;7408204;19;1654;-57
2022/09/17 07:19:22;;;;;;;;;;;;;;;24.44;59.92;99574.72;7410254;19;1552;-57
2022/09/17 07:21:50;;;;;;;;;;;;;;;24.43;60.19;99554.13;7408325;19;1535;-57
2022/09/17 07:24:21;;;;;;;;;;;;;;;24.43;60.04;99562.25;7408364;19;1754;-57
2022/09/17 07:26:51;;;;;;;;;;;;;;;24.41;60.26;99578.69;7409593;19;1860;-57
2022/09/17 07:29:20;;;;;;;;;;;;;;;24.41;60.21;99548.94;7410421;19;1619;-57
2022/09/17 07:31:48;;;;;;;;;;;;;;;24.39;60.02;99560.97;7408993;19;1540;-57
2022/09/17 07:34:16;;;;;;;;;;;;;;;24.41;59.98;99561.59;7410045;19;1638;-57
2022/09/17 07:36:45;;;;;;;;;;;;;;;24.41;60.16;99570.56;7410886;19;969;-57
2022/09/17 07:39:14;;;;;;;;;;;;;;;24.40;60.26;99571.59;7410094;19;1702;-57
2022/09/17 07:41:45;;;;;;;;;;;;;;;24.46;59.93;99567.25;7406279;19;1728;-57
2022/09/17 07:44:13;;;;;;;;;;;;;;;24.48;60.20;99567.88;7407925;19;1574;-57
2022/09/17 07:46:41;;;;;;;;;;;;;;;24.48;59.99;99548.97;7408489;19;1563;-67
2022/09/17 07:49:09;;;;;;;;;;;;;;;24.47;59.89;99549.16;7406471;19;1702;-57
2022/09/17 07:51:38;;;;;;;;;;;;;;;24.45;60.20;99535.84;7406519;19;1647;-57
2022/09/17 07:54:06;;;;;;;;;;;;;;;24.47;59.90;99547.31;7409590;19;1527;-57
2022/09/17 07:56:34;;;;;;;;;;;;;;;24.46;60.20;99545.63;7408394;19;1658;-57
2022/09/17 07:59:06;;;;;;;;;;;;;;;24.44;60.04;99534.19;7409831;19;1523;-57
2022/09/17 08:01:35;;;;;;;;;;;;;;;24.49;60.21;99553.34;7406465;19;1761;-57
2022/09/17 08:04:04;;;;;;;;;;;;;;;24.46;60.23;99563.72;7408957;19;1633;-57
2022/09/17 08:06:33;;;;;;;;;;;;;;;24.51;59.94;99554.03;7407641;19;1674;-57
2022/09/17 08:09:01;;;;;;;;;;;;;;;24.45;60.18;99541.25;7406106;19;1851;-67
2022/09/17 08:11:31;;;;;;;;;;;;;;;24.46;60.04;99561.03;7406208;19;1614;-67
2022/09/17 08:13:59;;;;;;;;;;;;;;;24.44;60.29;99563.91;7406041;19;1363;-67
2022/09/17 08:16:31;;;;;;;;;;;;;;;24.48;60.05;99572.47;7407680;19;1634;-67
2022/09/17 08:18:59;;;;;;;;;;;;;;;24.47;59.97;99562.69;7404362;19;973;-67
2022/09/17 08:21:28;;;;;;;;;;;;;;;24.46;59.95;99558.31;7406717;19;1793;-67
2022/09/17 08:23:56;;;;;;;;;;;;;;;24.47;60.27;99577.03;7407623;19;1579;-67
2022/09/17 08:26:26;;;;;;;;;;;;;;;24.46;59.97;99569.13;7409256;19;1264;-67
2022/09/17 08:28:56;;;;;;;;;;;;;;;24.47;59.95;99555.44;7407348;19;1858;-58
2022/09/17 08:31:25;;;;;;;;;;;;;;;24.51;60.00;99551.31;7408530;19;1764;-57
2022/09/17 08:33:56;;;;;;;;;;;;;;;24.46;60.24;99553.75;7405842;19;1765;-57
2022/09/17 08:36:25;;;;;;;;;;;;;;;24.48;60.01;99545.44;7407091;19;1508;-57
2022/09/17 08:38:54;;;;;;;;;;;;;;;24.51;59.92;99551.31;7408198;19;1567;-57
2022/09/17 08:41:28;;;;;;;;;;;;;;;24.48;60.08;99557.09;7407912;19;1611;-57
2022/09/17 08:44:03;;;;;;;;;;;;;;;24.48;60.10;99553.56;7405927;19;1610;-55
2022/09/17 08:46:33;;;;;;;;;;;;;;;24.50;60.04;99560.44;7408261;19;1567;-57
2022/09/17 08:49:09;;;;;;;;;;;;;;;24.53;59.99;99554.66;7407297;19;1859;-57
2022/09/17 08:51:42;;;;;;;;;;;;;;;24.55;59.90;99574.19;7406282;19;1777;-57
2022/09/17 08:54:16;;;;;;;;;;;;;;;24.51;60.03;99556.72;7407395;19;1650;-67
2022/09/17 08:56:47;;;;;;;;;;;;;;;24.55;60.08;99574.19;7405382;19;1535;-68
2022/09/17 08:59:22;;;;;;;;;;;;;;;24.54;59.95;99575.22;7407478;19;1609;-67
2022/09/17 09:01:53;;;;;;;;;;;;;;;24.54;60.21;99556.31;7405602;19;1645;-67
2022/09/17 09:04:35;;;;;;;;;;;;;;;24.56;59.95;99553.41;7407304;19;989;-67
2022/09/17 09:07:04;;;;;;;;;;;;;;;24.55;60.03;99555.28;7406809;19;1729;-67
2022/09/17 09:09:35;;;;;;;;;;;;;;;24.52;59.98;99561.06;7405307;19;1874;-67
2022/09/17 09:12:06;;;;;;;;;;;;;;;24.52;60.08;99588.09;7407424;19;1787;-68
2022/09/17 09:14:37;;;;;;;;;;;;;;;24.54;59.98;99577.91;7406672;19;1789;-67
2022/09/17 09:17:08;;;;;;;;;;;;;;;24.56;60.15;99573.16;7404192;19;1650;-67
2022/09/17 09:19:43;;;;;;;;;;;;;;;24.51;59.96;99570.22;7408011;19;1024;-67
2022/09/17 09:22:16;;;;;;;;;;;;;;;24.54;60.04;99586.03;7406317;19;1685;-58
2022/09/17 09:24:48;;;;;;;;;;;;;;;24.54;60.11;99572.50;7402949;19;1682;-58
2022/09/17 09:27:20;;;;;;;;;;;;;;;24.58;60.14;99589.19;7406446;19;1877;-57
2022/09/17 09:29:55;;;;;;;;;;;;;;;24.56;60.16;99583.97;7407010;19;1020;-68
2022/09/17 09:32:29;;;;;;;;;;;;;;;24.58;60.09;99579.19;7405352;19;1725;-68
2022/09/17 09:35:03;;;;;;;;;;;;;;;24.56;59.85;99575.84;7406680;19;1421;-68
2022/09/17 09:37:33;;;;;;;;;;;;;;;24.58;59.93;99571.06;7406428;19;1682;-68
2022/09/17 09:40:04;;;;;;;;;;;;;;;24.58;59.93;99573.78;7405909;19;1773;-68
2022/09/17 09:42:35;;;;;;;;;;;;;;;24.55;59.84;99571.50;7406076;19;1702;-58
2022/09/17 09:45:04;;;;;;;;;;;;;;;24.57;60.07;99577.53;7405562;19;1650;-68
2022/09/17 09:47:40;;;;;;;;;;;;;;;24.53;59.94;99554.66;7405600;19;1854;-68
2022/09/17 09:50:24;;;;;;;;;;;;;;;24.60;59.94;99582.53;7406076;19;973;-68
2022/09/17 09:52:59;;;;;;;;;;;;;;;24.57;60.00;99572.13;7406135;19;1528;-68
2022/09/17 09:55:39;;;;;;;;;;;;;;;24.54;59.82;99559.00;7406612;19;948;-68
2022/09/17 09:58:13;;;;;;;;;;;;;;;24.56;60.19;99558.81;7405499;19;1717;-68
2022/09/17 10:00:43;;;;;;;;;;;;;;;24.56;60.07;99564.22;7404518;19;1685;-68
2022/09/17 10:03:14;;;;;;;;;;;;;;;24.59;59.97;99558.38;7404578;19;1611;-68
2022/09/17 10:05:53;;;;;;;;;;;;;;;24.63;60.08;99572.34;7405226;19;1555;-68
2022/09/17 10:08:21;;;;;;;;;;;;;;;24.57;60.00;99563.16;7405609;19;1845;-68
2022/09/17 10:10:57;;;;;;;;;;;;;;;24.58;60.17;99570.25;7404702;19;1669;-68
2022/09/17 10:13:25;;;;;;;;;;;;;;;24.58;60.01;99576.47;7404833;19;1788;-68
2022/09/17 10:15:54;;;;;;;;;;;;;;;24.56;60.07;99567.75;7405434;19;1531;-68
2022/09/17 10:18:23;;;;;;;;;;;;;;;24.56;60.01;99564.22;7404781;19;1572;-68
2022/09/17 10:20:55;;;;;;;;;;;;;;;24.55;60.21;99560.69;7404040;19;1626;-68
2022/09/17 10:23:24;;;;;;;;;;;;;;;24.56;60.19;99562.34;7404742;19;1562;-68
2022/09/17 10:25:54;;;;;;;;;;;;;;;24.57;60.07;99574.84;7404620;19;1608;-68
2022/09/17 10:28:40;;;;;;;;;;;;;;;24.53;60.22;99570.88;7404593;19;1861;-68
2022/09/17 10:31:10;;;;;;;;;;;;;;;24.58;60.08;99587.28;7403168;19;1665;-68
2022/09/17 10:33:41;;;;;;;;;;;;;;;24.59;60.19;99583.56;7405934;19;1012;-68
2022/09/17 10:36:14;;;;;;;;;;;;;;;24.57;60.25;99574.84;7402669;19;1764;-68
2022/09/17 10:38:44;;;;;;;;;;;;;;;24.55;59.94;99566.09;7402974;19;1863;-68
2022/09/17 10:41:17;;;;;;;;;;;;;;;24.56;60.20;99592.06;7404811;19;1563;-68
2022/09/17 10:43:46;;;;;;;;;;;;;;;24.58;60.12;99590.00;7404873;19;1629;-58
2022/09/17 10:46:16;;;;;;;;;;;;;;;24.57;60.20;99587.50;7402168;19;1545;-58
2022/09/17 10:48:46;;;;;;;;;;;;;;;24.55;59.91;99581.44;7404240;19;1862;-58
2022/09/17 10:51:24;;;;;;;;;;;;;;;24.54;60.11;99587.91;7402221;19;1788;-58
2022/09/17 10:54:00;;;;;;;;;;;;;;;24.58;60.12;99597.28;7403283;19;1531;-59
2022/09/17 10:56:31;;;;;;;;;;;;;;;24.55;60.29;99590.41;7402667;19;1619;-68
2022/09/17 10:59:04;;;;;;;;;;;;;;;24.57;60.35;99614.53;7404900;19;1283;-68
2022/09/17 11:01:41;;;;;;;;;;;;;;;24.57;60.23;99582.09;7400331;19;1654;-68
2022/09/17 11:04:24;;;;;;;;;;;;;;;24.55;60.04;99589.56;7403206;19;1613;-68
2022/09/17 11:07:06;;;;;;;;;;;;;;;24.57;60.09;99609.97;7407249;19;1555;-68
2022/09/17 11:09:38;;;;;;;;;;;;;;;24.56;60.19;99600.19;7408158;19;1857;-68
2022/09/17 11:12:17;;;;;;;;;;;;;;;24.56;60.22;99585.84;7409520;19;1618;-68
2022/09/17 11:14:51;;;;;;;;;;;;;;;24.56;60.10;99592.06;7410193;19;1527;-68
2022/09/17 11:17:30;;;;;;;;;;;;;;;24.52;60.02;99598.91;7409783;19;1563;-68
2022/09/17 11:20:01;;;;;;;;;;;;;;;24.53;60.35;99592.50;7410150;19;987;-68
2022/09/17 11:22:38;;;;;;;;;;;;;;;24.50;60.30;99590.16;7410813;19;1670;-68
2022/09/17 11:25:24;;;;;;;;;;;;;;;24.53;60.11;99614.09;7410990;19;1690;-68
2022/09/17 11:28:02;;;;;;;;;;;;;;;24.54;60.45;99626.56;7410923;19;1678;-68
2022/09/17 11:30:34;;;;;;;;;;;;;;;24.52;60.33;99627.81;7409918;19;1695;-68
2022/09/17 11:33:09;;;;;;;;;;;;;;;24.52;60.13;99650.25;7410258;19;1721;-68
2022/09/17 11:35:39;;;;;;;;;;;;;;;24.51;60.36;99648.59;7407495;19;1772;-68
2022/09/17 11:38:12;;;;;;;;;;;;;;;24.51;60.25;99659.41;7409684;19;1546;-68
2022/09/17 11:40:42;;;;;;;;;;;;;;;24.54;60.17;99685.22;7410073;19;1638;-68
2022/09/17 11:43:16;;;;;;;;;;;;;;;24.56;60.16;99694.78;7409984;19;1654;-68
2022/09/17 11:45:49;;;;;;;;;;;;;;;24.52;60.21;99677.28;7411154;19;983;-68
2022/09/17 11:48:19;;;;;;;;;;;;;;;24.53;60.11;99692.50;7410720;19;1846;-68
2022/09/17 11:50:50;;;;;;;;;;;;;;;24.54;60.05;99694.13;7407045;19;1727;-68
2022/09/17 11:53:25;;;;;;;;;;;;;;;24.58;60.25;99702.69;7409600;19;1556;-58
2022/09/17 11:55:55;;;;;;;;;;;;;;;24.58;60.00;99702.69;7409914;19;1034;-58
2022/09/17 11:58:28;;;;;;;;;;;;;;;24.58;60.09;99697.28;7407875;19;1785;-57
2022/09/17 12:01:00;;;;;;;;;;;;;;;24.54;60.24;99696.84;7407644;19;1638;-57
2022/09/17 12:03:33;;;;;;;;;;;;;;;24.54;60.28;99713.06;7405812;19;1528;-57
2022/09/17 12:06:04;;;;;;;;;;;;;;;24.56;60.21;99708.28;7408425;19;1450;-58
2022/09/17 12:08:41;;;;;;;;;;;;;;;24.55;60.14;99709.34;7407023;19;1862;-57
2022/09/17 12:11:15;;;;;;;;;;;;;;;24.51;60.45;99677.47;7409067;19;1535;-58
2022/09/17 12:13:47;;;;;;;;;;;;;;;24.55;60.13;99703.06;7406445;19;1359;-58
2022/09/17 12:16:17;;;;;;;;;;;;;;;24.50;60.22;99681.19;7409510;19;1562;-68
2022/09/17 12:18:51;;;;;;;;;;;;;;;24.52;60.13;99687.28;7408329;19;936;-68
2022/09/17 12:21:21;;;;;;;;;;;;;;;24.53;60.13;99662.75;7409015;19;1566;-68
2022/09/17 12:23:55;;;;;;;;;;;;;;;24.52;60.18;99652.97;7407759;19;1571;-68
2022/09/17 12:26:29;;;;;;;;;;;;;;;24.50;60.36;99633.41;7406720;19;1160;-68
2022/09/17 12:29:02;;;;;;;;;;;;;;;24.49;60.51;99628.16;7407266;19;1844;-68
2022/09/17 12:31:34;;;;;;;;;;;;;;;24.51;60.34;99637.81;7407500;19;1459;-58
2022/09/17 12:34:06;;;;;;;;;;;;;;;24.46;60.28;99639.41;7408308;19;1603;-58
2022/09/17 12:36:47;;;;;;;;;;;;;;;24.51;60.54;99651.31;7408553;19;1540;-57
2022/09/17 12:39:30;;;;;;;;;;;;;;;24.49;60.31;99629.03;7407757;19;1638;-68
2022/09/17 12:42:07;;;;;;;;;;;;;;;24.50;60.34;99641.53;7407981;19;1627;-68
2022/09/17 12:44:48;;;;;;;;;;;;;;;24.52;60.32;99638.63;7406396;19;1685;-57
2022/09/17 12:47:34;;;;;;;;;;;;;;;24.53;60.52;99638.44;7407571;19;1646;-56
2022/09/17 12:50:09;;;;;;;;;;;;;;;24.49;60.24;99631.72;7405879;19;1857;-58
2022/09/17 12:52:44;;;;;;;;;;;;;;;24.54;60.24;99633.84;7408394;19;1086;-58
2022/09/17 12:55:23;;;;;;;;;;;;;;;24.50;60.51;99619.91;7406433;19;1713;-57
2022/09/17 12:57:59;;;;;;;;;;;;;;;24.49;60.28;99623.63;7405286;19;1717;-67
2022/09/17 13:00:27;;;;;;;;;;;;;;;24.49;60.35;99601.16;7407298;19;1567;-58
2022/09/17 13:02:59;;;;;;;;;;;;;;;24.48;60.33;99584.09;7406119;19;1614;-58
2022/09/17 13:05:40;;;;;;;;;;;;;;;24.48;60.25;99584.09;7405922;19;1371;-58
2022/09/17 13:08:23;;;;;;;;;;;;;;;24.49;60.44;99584.94;7406614;19;1623;-58
2022/09/17 13:11:04;;;;;;;;;;;;;;;24.48;60.53;99578.69;7404881;19;1857;-57
2022/09/17 13:13:39;;;;;;;;;;;;;;;24.48;60.46;99577.88;7407074;19;1580;-58
2022/09/17 13:16:11;;;;;;;;;;;;;;;24.49;60.48;99580.38;7407407;19;1549;-68
2022/09/17 13:18:44;;;;;;;;;;;;;;;24.44;60.45;99588.25;7407323;19;1054;-68